Eos — FAB5642 — position and weather

sailwx.info

Track history (hours):
 
Tides and Currents Weather Stations Pressure Air Temp Water Temp Dewpoint Dewpoint Depression Visibility Wind Speed Wind Dir Waves Ship Positions

Eos

Last reported at 2017-Sep-17 16:17 UTC. Time now 2017-Sep-22 10:03 UTC.
Position N 47°43' W 003°22'.

Length 11 m.

Type: Sailing vessel. MMSI: 227214860.

Date/timePositionNaut miles runAvg speedWind from/ knotsBaromVisibWave heightAir tempDewpointWater temp
2017-Sep-17 16:17N 47°43' W 003°22'0 0.0
2017-Sep-17 15:59N 47°43' W 003°22'0 0.0
2017-Sep-17 15:29N 47°43' W 003°22'0 0.0
2017-Sep-17 14:59N 47°43' W 003°22'0 0.6
2017-Sep-17 14:30N 47°43' W 003°22'2 4.4
2017-Sep-17 14:00N 47°41' W 003°24'3 5.4
2017-Sep-17 13:30N 47°40' W 003°27'3 5.6
2017-Sep-17 13:00N 47°41' W 003°31'4 0.2
2017-Sep-16 12:16N 47°40' W 003°38'1 3.5
2017-Sep-16 12:00N 47°41' W 003°36'3 4.9
2017-Sep-16 11:30N 47°42' W 003°33'2 4.6
2017-Sep-16 11:00N 47°41' W 003°31'2 3.4
2017-Sep-16 10:30N 47°41' W 003°28'2 3.9
2017-Sep-16 10:00N 47°40' W 003°27'2 3.3
2017-Sep-16 09:30N 47°41' W 003°25'2 3.9
2017-Sep-16 09:00N 47°42' W 003°23'2 3.1
2017-Sep-16 08:30N 47°43' W 003°22'0 0.3
2017-Sep-16 08:00N 47°43' W 003°22'  
2017-Sep-08 14:54N 47°43' W 003°22'0 0.0
2017-Sep-08 14:30N 47°43' W 003°22'0 0.0
2017-Sep-08 14:00N 47°43' W 003°22'0 0.0
2017-Sep-08 13:30N 47°43' W 003°22'0 0.0
2017-Sep-08 13:00N 47°43' W 003°22'0 0.0
2017-Sep-08 12:30N 47°43' W 003°22'0 0.0
2017-Sep-08 12:00N 47°43' W 003°22'0 0.0
2017-Sep-08 11:30N 47°43' W 003°22'0 0.0
2017-Sep-08 11:00N 47°43' W 003°22'0 0.4
2017-Sep-08 10:30N 47°43' W 003°22'1 2.2
2017-Sep-08 10:00N 47°42' W 003°22'3 5.0
2017-Sep-08 09:30N 47°41' W 003°25'2 4.3
2017-Sep-08 08:58N 47°39' W 003°27'0 0.0
2017-Sep-08 08:28N 47°39' W 003°27'0 0.0
2017-Sep-08 07:58N 47°39' W 003°27'0 0.0
2017-Sep-08 07:28N 47°39' W 003°27'0 0.0
2017-Sep-08 06:58N 47°39' W 003°27'0 0.0
2017-Sep-08 06:28N 47°39' W 003°27'0 0.0
2017-Sep-08 05:58N 47°39' W 003°27'0 0.0
2017-Sep-08 05:28N 47°39' W 003°27'0 0.0
2017-Sep-08 04:58N 47°39' W 003°27'0 0.0
2017-Sep-08 04:28N 47°39' W 003°27'0 0.0
2017-Sep-08 03:58N 47°39' W 003°27'0 0.0
2017-Sep-08 03:28N 47°39' W 003°27'0 0.0
2017-Sep-08 02:58N 47°39' W 003°27'0 0.0
2017-Sep-08 02:28N 47°39' W 003°27'0 0.0
2017-Sep-08 01:58N 47°39' W 003°27'0 0.0
2017-Sep-08 01:28N 47°39' W 003°27'0 0.0
2017-Sep-08 00:58N 47°39' W 003°27'0 0.0
2017-Sep-08 00:28N 47°39' W 003°27'0 0.0
2017-Sep-07 23:58N 47°39' W 003°27'0 0.0
2017-Sep-07 23:28N 47°39' W 003°27'0 0.0
2017-Sep-07 22:58N 47°39' W 003°27'0 0.0
2017-Sep-07 22:28N 47°39' W 003°27'0 0.0
2017-Sep-07 21:58N 47°39' W 003°27'0 0.0
2017-Sep-07 21:28N 47°39' W 003°27'0 0.0
2017-Sep-07 20:58N 47°39' W 003°27'0 0.0
2017-Sep-07 20:28N 47°39' W 003°27'0 0.0
2017-Sep-07 19:58N 47°39' W 003°27'0 0.0
2017-Sep-07 19:28N 47°39' W 003°27'0 0.0
2017-Sep-07 18:58N 47°39' W 003°27'0 0.3
2017-Sep-07 18:30N 47°39' W 003°27'2 4.4
2017-Sep-07 17:59N 47°40' W 003°30'  
Track history (hours):
 
Tides and Currents Weather Stations Pressure Air Temp Water Temp Dewpoint Dewpoint Depression Visibility Wind Speed Wind Dir Waves Ship Positions

Eos

Last reported at 2017-Sep-17 16:17 UTC. Time now 2017-Sep-22 10:03 UTC.
Position N 47°43' W 003°22'.

Length 11 m.

Type: Sailing vessel. MMSI: 227214860.

Date/timePositionNaut miles runAvg speedWind from/ knotsBaromVisibWave heightAir tempDewpointWater temp
2017-Sep-17 16:17N 47°43' W 003°22'0 0.0
2017-Sep-17 15:59N 47°43' W 003°22'0 0.0
2017-Sep-17 15:29N 47°43' W 003°22'0 0.0
2017-Sep-17 14:59N 47°43' W 003°22'0 0.6
2017-Sep-17 14:30N 47°43' W 003°22'2 4.4
2017-Sep-17 14:00N 47°41' W 003°24'3 5.4
2017-Sep-17 13:30N 47°40' W 003°27'3 5.6
2017-Sep-17 13:00N 47°41' W 003°31'4 0.2
2017-Sep-16 12:16N 47°40' W 003°38'1 3.5
2017-Sep-16 12:00N 47°41' W 003°36'3 4.9
2017-Sep-16 11:30N 47°42' W 003°33'2 4.6
2017-Sep-16 11:00N 47°41' W 003°31'2 3.4
2017-Sep-16 10:30N 47°41' W 003°28'2 3.9
2017-Sep-16 10:00N 47°40' W 003°27'2 3.3
2017-Sep-16 09:30N 47°41' W 003°25'2 3.9
2017-Sep-16 09:00N 47°42' W 003°23'2 3.1
2017-Sep-16 08:30N 47°43' W 003°22'0 0.3
2017-Sep-16 08:00N 47°43' W 003°22'  
2017-Sep-08 14:54N 47°43' W 003°22'0 0.0
2017-Sep-08 14:30N 47°43' W 003°22'0 0.0
2017-Sep-08 14:00N 47°43' W 003°22'0 0.0
2017-Sep-08 13:30N 47°43' W 003°22'0 0.0
2017-Sep-08 13:00N 47°43' W 003°22'0 0.0
2017-Sep-08 12:30N 47°43' W 003°22'0 0.0
2017-Sep-08 12:00N 47°43' W 003°22'0 0.0
2017-Sep-08 11:30N 47°43' W 003°22'0 0.0
2017-Sep-08 11:00N 47°43' W 003°22'0 0.4
2017-Sep-08 10:30N 47°43' W 003°22'1 2.2
2017-Sep-08 10:00N 47°42' W 003°22'3 5.0
2017-Sep-08 09:30N 47°41' W 003°25'2 4.3
2017-Sep-08 08:58N 47°39' W 003°27'0 0.0
2017-Sep-08 08:28N 47°39' W 003°27'0 0.0
2017-Sep-08 07:58N 47°39' W 003°27'0 0.0
2017-Sep-08 07:28N 47°39' W 003°27'0 0.0
2017-Sep-08 06:58N 47°39' W 003°27'0 0.0
2017-Sep-08 06:28N 47°39' W 003°27'0 0.0
2017-Sep-08 05:58N 47°39' W 003°27'0 0.0
2017-Sep-08 05:28N 47°39' W 003°27'0 0.0
2017-Sep-08 04:58N 47°39' W 003°27'0 0.0
2017-Sep-08 04:28N 47°39' W 003°27'0 0.0
2017-Sep-08 03:58N 47°39' W 003°27'0 0.0
2017-Sep-08 03:28N 47°39' W 003°27'0 0.0
2017-Sep-08 02:58N 47°39' W 003°27'0 0.0
2017-Sep-08 02:28N 47°39' W 003°27'0 0.0
2017-Sep-08 01:58N 47°39' W 003°27'0 0.0
2017-Sep-08 01:28N 47°39' W 003°27'0 0.0
2017-Sep-08 00:58N 47°39' W 003°27'0 0.0
2017-Sep-08 00:28N 47°39' W 003°27'0 0.0
2017-Sep-07 23:58N 47°39' W 003°27'0 0.0
2017-Sep-07 23:28N 47°39' W 003°27'0 0.0
2017-Sep-07 22:58N 47°39' W 003°27'0 0.0
2017-Sep-07 22:28N 47°39' W 003°27'0 0.0
2017-Sep-07 21:58N 47°39' W 003°27'0 0.0
2017-Sep-07 21:28N 47°39' W 003°27'0 0.0
2017-Sep-07 20:58N 47°39' W 003°27'0 0.0
2017-Sep-07 20:28N 47°39' W 003°27'0 0.0
2017-Sep-07 19:58N 47°39' W 003°27'0 0.0
2017-Sep-07 19:28N 47°39' W 003°27'0 0.0
2017-Sep-07 18:58N 47°39' W 003°27'0 0.3
2017-Sep-07 18:30N 47°39' W 003°27'2 4.4
2017-Sep-07 17:59N 47°40' W 003°30'  

Dump ship's entire track history